Aviation Digital Data Service (ADDS)

Output produced by METARs form (1254 UTC 22 March 2019)
found at http://www.aviationweather.gov/metar/data/
 
METAR text: PKMJ 221151Z 07010KT 15SM FEW015 SCT050 BKN120 OVC300 28/24 A2984
Conditions at: PKMJ (MAJURO WSO AIRPO, MH, US) observed 1151 UTC 22 March 2019
Temperature: 28.0°C (82°F)
Dewpoint: 24.0°C (75°F) [RH = 79%]
Pressure (altimeter): 29.84 inches Hg (1010.6 mb)
Winds: from the ENE (70 degrees) at 12 MPH (10 knots; 5.1 m/s)
Visibility: 15 miles (24 km)
Ceiling: 12000 feet AGL
Clouds: few clouds at 1500 feet AGL
scattered clouds at 5000 feet AGL
broken clouds at 12000 feet AGL
overcast cloud deck at 30000 feet AGL
Weather: no significant weather observed at this time

METAR text: PKMJ 221051Z 07011KT 15SM FEW015 SCT050 BKN120 OVC300 28/24 A2985
Conditions at: PKMJ (MAJURO WSO AIRPO, MH, US) observed 1051 UTC 22 March 2019
Temperature: 28.0°C (82°F)
Dewpoint: 24.0°C (75°F) [RH = 79%]
Pressure (altimeter): 29.85 inches Hg (1010.9 mb)
Winds: from the ENE (70 degrees) at 13 MPH (11 knots; 5.7 m/s)
Visibility: 15 miles (24 km)
Ceiling: 12000 feet AGL
Clouds: few clouds at 1500 feet AGL
scattered clouds at 5000 feet AGL
broken clouds at 12000 feet AGL
overcast cloud deck at 30000 feet AGL
Weather: no significant weather observed at this time

METAR text: PKMJ 220952Z 07010KT 15SM FEW015 SCT050 BKN120 OVC300 28/24 A2985
Conditions at: PKMJ (MAJURO WSO AIRPO, MH, US) observed 0952 UTC 22 March 2019
Temperature: 28.0°C (82°F)
Dewpoint: 24.0°C (75°F) [RH = 79%]
Pressure (altimeter): 29.85 inches Hg (1010.9 mb)
Winds: from the ENE (70 degrees) at 12 MPH (10 knots; 5.1 m/s)
Visibility: 15 miles (24 km)
Ceiling: 12000 feet AGL
Clouds: few clouds at 1500 feet AGL
scattered clouds at 5000 feet AGL
broken clouds at 12000 feet AGL
overcast cloud deck at 30000 feet AGL
Weather: no significant weather observed at this time

METAR text: PKMJ 220850Z 08010KT 15SM FEW015 SCT050 BKN120 OVC300 28/25 A2984
Conditions at: PKMJ (MAJURO WSO AIRPO, MH, US) observed 0850 UTC 22 March 2019
Temperature: 28.0°C (82°F)
Dewpoint: 25.0°C (77°F) [RH = 84%]
Pressure (altimeter): 29.84 inches Hg (1010.6 mb)
Winds: from the E (80 degrees) at 12 MPH (10 knots; 5.1 m/s)
Visibility: 15 miles (24 km)
Ceiling: 12000 feet AGL
Clouds: few clouds at 1500 feet AGL
scattered clouds at 5000 feet AGL
broken clouds at 12000 feet AGL
overcast cloud deck at 30000 feet AGL
Weather: no significant weather observed at this time

METAR text: PKMJ 220751Z 06009KT 15SM FEW015 SCT050 BKN120 OVC300 28/25 A2982
Conditions at: PKMJ (MAJURO WSO AIRPO, MH, US) observed 0751 UTC 22 March 2019
Temperature: 28.0°C (82°F)
Dewpoint: 25.0°C (77°F) [RH = 84%]
Pressure (altimeter): 29.82 inches Hg (1009.9 mb)
Winds: from the ENE (60 degrees) at 10 MPH (9 knots; 4.6 m/s)
Visibility: 15 miles (24 km)
Ceiling: 12000 feet AGL
Clouds: few clouds at 1500 feet AGL
scattered clouds at 5000 feet AGL
broken clouds at 12000 feet AGL
overcast cloud deck at 30000 feet AGL
Weather: no significant weather observed at this time

METAR text: PKMJ 220650Z 04008KT 15SM FEW015 SCT050 BKN120 OVC300 28/25 A2980
Conditions at: PKMJ (MAJURO WSO AIRPO, MH, US) observed 0650 UTC 22 March 2019
Temperature: 28.0°C (82°F)
Dewpoint: 25.0°C (77°F) [RH = 84%]
Pressure (altimeter): 29.80 inches Hg (1009.2 mb)
Winds: from the NE (40 degrees) at 9 MPH (8 knots; 4.1 m/s)
Visibility: 15 miles (24 km)
Ceiling: 12000 feet AGL
Clouds: few clouds at 1500 feet AGL
scattered clouds at 5000 feet AGL
broken clouds at 12000 feet AGL
overcast cloud deck at 30000 feet AGL
Weather: no significant weather observed at this time

METAR text: PKMJ 220551Z 06010KT 15SM FEW015 SCT050 BKN120 OVC300 28/25 A2980
Conditions at: PKMJ (MAJURO WSO AIRPO, MH, US) observed 0551 UTC 22 March 2019
Temperature: 28.0°C (82°F)
Dewpoint: 25.0°C (77°F) [RH = 84%]
Pressure (altimeter): 29.80 inches Hg (1009.2 mb)
Winds: from the ENE (60 degrees) at 12 MPH (10 knots; 5.1 m/s)
Visibility: 15 miles (24 km)
Ceiling: 12000 feet AGL
Clouds: few clouds at 1500 feet AGL
scattered clouds at 5000 feet AGL
broken clouds at 12000 feet AGL
overcast cloud deck at 30000 feet AGL
Weather: no significant weather observed at this time

METAR text: PKMJ 220451Z 06010KT 15SM FEW015 SCT050 BKN120 OVC300 28/25 A2980
Conditions at: PKMJ (MAJURO WSO AIRPO, MH, US) observed 0451 UTC 22 March 2019
Temperature: 28.0°C (82°F)
Dewpoint: 25.0°C (77°F) [RH = 84%]
Pressure (altimeter): 29.80 inches Hg (1009.2 mb)
Winds: from the ENE (60 degrees) at 12 MPH (10 knots; 5.1 m/s)
Visibility: 15 miles (24 km)
Ceiling: 12000 feet AGL
Clouds: few clouds at 1500 feet AGL
scattered clouds at 5000 feet AGL
broken clouds at 12000 feet AGL
overcast cloud deck at 30000 feet AGL
Weather: no significant weather observed at this time

METAR text: PKMJ 220351Z 06012KT 15SM FEW015 BKN050 BKN120 OVC300 28/25 A2979 RMK FIRST
Conditions at: PKMJ (MAJURO WSO AIRPO, MH, US) observed 0351 UTC 22 March 2019
Temperature: 28.0°C (82°F)
Dewpoint: 25.0°C (77°F) [RH = 84%]
Pressure (altimeter): 29.79 inches Hg (1008.9 mb)
Winds: from the ENE (60 degrees) at 14 MPH (12 knots; 6.2 m/s)
Visibility: 15 miles (24 km)
Ceiling: 5000 feet AGL
Clouds: few clouds at 1500 feet AGL
broken clouds at 5000 feet AGL
broken clouds at 12000 feet AGL
overcast cloud deck at 30000 feet AGL
Weather: no significant weather observed at this time

METAR text: PKMJ 212055Z 05011KT 14SM -RA SCT014 BKN050 BKN120 OVC1400 27/25 A2989 RMK LAST
Conditions at: PKMJ (MAJURO WSO AIRPO, MH, US) observed 2055 UTC 21 March 2019
Temperature: 27.0°C (81°F)
Dewpoint: 25.0°C (77°F) [RH = 89%]
Pressure (altimeter): 29.89 inches Hg (1012.3 mb)
Winds: from the NE (50 degrees) at 13 MPH (11 knots; 5.7 m/s)
Visibility: 14 miles (23 km)
Ceiling: 5000 feet AGL
Clouds: scattered clouds at 1400 feet AGL
broken clouds at 5000 feet AGL
broken clouds at 12000 feet AGL
Weather: -RA  (light rain)

METAR text: PKMJ 211957Z 05012KT 12SM -RA SCT014 BKN045 OVC110 27/25 A2986
Conditions at: PKMJ (MAJURO WSO AIRPO, MH, US) observed 1957 UTC 21 March 2019
Temperature: 27.0°C (81°F)
Dewpoint: 25.0°C (77°F) [RH = 89%]
Pressure (altimeter): 29.86 inches Hg (1011.3 mb)
Winds: from the NE (50 degrees) at 14 MPH (12 knots; 6.2 m/s)
Visibility: 12 miles (19 km)
Ceiling: 4500 feet AGL
Clouds: scattered clouds at 1400 feet AGL
broken clouds at 4500 feet AGL
overcast cloud deck at 11000 feet AGL
Weather: -RA  (light rain)

METAR text: PKMJ 211911Z 05011KT 10SM -SHRA SCT014TCU BKN045 OVC110 27/25 A2984 RMK FIRST
Conditions at: PKMJ (MAJURO WSO AIRPO, MH, US) observed 1911 UTC 21 March 2019
Temperature: 27.0°C (81°F)
Dewpoint: 25.0°C (77°F) [RH = 89%]
Pressure (altimeter): 29.84 inches Hg (1010.6 mb)
Winds: from the NE (50 degrees) at 13 MPH (11 knots; 5.7 m/s)
Visibility: 10 or more miles (16+ km)
Ceiling: 4500 feet AGL
Clouds: scattered clouds at 1400 feet AGL
broken clouds at 4500 feet AGL
overcast cloud deck at 11000 feet AGL
Weather: -SHRA  (light rain showers)

Forecast for: PKMJ (MAJURO WSO AIRPO, MH, US)
Text: PKMJ 221120Z 2212/2312 07013KT P6SM VCSH SCT015 SCT050 BKN120
Forecast period: 1200 UTC 22 March 2019 to 1200 UTC 23 March 2019
Forecast type: FROM: standard forecast or significant change
Winds: from the ENE (70 degrees) at 15 MPH (13 knots; 6.7 m/s)
Visibility: 6 or more miles 10+ km)
Ceiling: 12000 feet AGL
Clouds: scattered clouds at 1500 feet AGL
scattered clouds at 5000 feet AGL
broken clouds at 12000 feet AGL
Weather: VCSH  (showers in vicinity)